Time;durP1;ratioP1;P1;durP2;ratioP2;P2;SDS_P1;SDS_P2;PMS_P1;PMS_P2;Temp;Humidity;BMP_temperature;BMP_pressure;BME280_temperature;BME280_humidity;BME280_pressure;Samples;Min_cycle;Max_cycle;Signal;HPM_P1;HPM_P2
2022/11/29 00:01:29;;;;;;;8.88;7.47;;;3.20;99.90;;;;;;5059532;28;20422;-62
2022/11/29 00:03:56;;;;;;;9.68;6.20;;;3.20;99.90;;;;;;5055404;28;20049;-64
2022/11/29 00:06:26;;;;;;;8.88;6.00;;;3.20;99.90;;;;;;5057998;28;20056;-65
2022/11/29 00:08:55;;;;;;;8.50;6.60;;;3.20;99.90;;;;;;5057904;28;20082;-62
2022/11/29 00:14:13;;;;;;;9.45;7.28;;;3.10;99.90;;;;;;5065899;28;21666;-63
2022/11/29 00:16:40;;;;;;;9.85;7.85;;;3.10;99.90;;;;;;5061347;28;20072;-62
2022/11/29 00:19:09;;;;;;;8.57;7.63;;;3.10;99.90;;;;;;5063119;28;20055;-62
2022/11/29 00:21:36;;;;;;;7.53;5.78;;;3.10;99.90;;;;;;5065597;28;20156;-63
2022/11/29 00:24:03;;;;;;;10.32;6.75;;;3.10;99.90;;;;;;5062613;28;20048;-63
2022/11/29 00:26:30;;;;;;;11.38;7.57;;;3.10;99.90;;;;;;5064397;28;20435;-64
2022/11/29 00:28:58;;;;;;;9.27;7.07;;;3.10;99.90;;;;;;5060441;28;20493;-62
2022/11/29 00:31:31;;;;;;;6.88;6.18;;;3.10;99.90;;;;;;5063400;28;20531;-62
2022/11/29 00:34:01;;;;;;;8.52;6.35;;;3.10;99.90;;;;;;5069249;28;20072;-62
2022/11/29 00:36:28;;;;;;;8.52;7.28;;;3.10;99.90;;;;;;5057318;28;20065;-65
2022/11/29 00:38:55;;;;;;;7.25;5.93;;;3.10;99.90;;;;;;5062053;28;20051;-62
2022/11/29 00:41:22;;;;;;;8.57;6.90;;;3.10;99.90;;;;;;5060750;28;20120;-62
2022/11/29 00:43:49;;;;;;;8.30;6.85;;;3.10;99.90;;;;;;5060857;28;20087;-63
2022/11/29 00:46:16;;;;;;;7.30;5.65;;;3.10;99.90;;;;;;5061076;28;20064;-62
2022/11/29 00:48:43;;;;;;;7.60;5.85;;;3.10;99.90;;;;;;5061723;27;20052;-62
2022/11/29 00:51:10;;;;;;;6.03;5.30;;;3.20;99.90;;;;;;5060589;28;20044;-63
2022/11/29 00:53:38;;;;;;;7.43;5.78;;;3.10;99.90;;;;;;5062044;28;20063;-62
2022/11/29 00:56:05;;;;;;;6.95;4.85;;;3.10;99.90;;;;;;5060464;28;20053;-63
2022/11/29 00:58:32;;;;;;;6.82;5.43;;;3.20;99.90;;;;;;5055692;28;20103;-64
2022/11/29 01:00:59;;;;;;;6.45;5.15;;;3.20;99.90;;;;;;5058638;28;20044;-61
2022/11/29 01:03:26;;;;;;;6.10;4.63;;;3.20;99.90;;;;;;5059874;28;20139;-63
2022/11/29 01:06:00;;;;;;;8.27;5.55;;;3.20;99.90;;;;;;5056801;28;20230;-63
2022/11/29 01:08:27;;;;;;;6.60;4.47;;;3.20;99.90;;;;;;5060489;28;20052;-62
2022/11/29 01:11:24;;;;;;;6.05;4.68;;;3.20;99.90;;;;;;5060338;28;20103;-63
2022/11/29 01:13:55;;;;;;;7.07;5.35;;;3.20;99.90;;;;;;5052615;28;20137;-62
2022/11/29 01:16:22;;;;;;;6.53;5.07;;;3.20;99.90;;;;;;5059095;28;20604;-62
2022/11/29 01:18:49;;;;;;;5.72;5.03;;;3.20;99.90;;;;;;5061709;28;20155;-62
2022/11/29 01:21:19;;;;;;;6.85;5.20;;;3.20;99.90;;;;;;5060064;28;20542;-62
2022/11/29 01:23:47;;;;;;;6.30;5.03;;;3.20;99.90;;;;;;5058585;28;20101;-62
2022/11/29 01:26:21;;;;;;;6.50;5.53;;;3.20;99.90;;;;;;5061074;28;20462;-64
2022/11/29 01:28:49;;;;;;;5.53;4.75;;;3.20;99.90;;;;;;5059877;28;20049;-63
2022/11/29 01:31:37;;;;;;;6.30;4.43;;;3.20;99.90;;;;;;5062040;28;20051;-61
2022/11/29 01:34:05;;;;;;;6.28;5.20;;;3.20;99.90;;;;;;5058513;28;20398;-63
2022/11/29 01:36:33;;;;;;;7.30;5.85;;;3.30;99.90;;;;;;5060615;28;20078;-62
2022/11/29 01:39:01;;;;;;;7.05;5.55;;;3.30;99.90;;;;;;5059540;28;20040;-63
2022/11/29 01:41:31;;;;;;;7.53;5.95;;;3.30;99.90;;;;;;5058560;28;20131;-63
2022/11/29 01:44:10;;;;;;;8.00;5.68;;;3.30;99.90;;;;;;5060652;28;20048;-62
2022/11/29 01:46:48;;;;;;;7.35;5.75;;;3.30;99.90;;;;;;5055737;28;20048;-63
2022/11/29 01:49:16;;;;;;;6.20;5.20;;;3.30;99.90;;;;;;5061658;28;20049;-63
2022/11/29 01:51:53;;;;;;;6.72;4.90;;;3.30;99.90;;;;;;5062406;28;20529;-62
2022/11/29 01:54:21;;;;;;;7.07;5.13;;;3.30;99.90;;;;;;5062886;28;20056;-64
2022/11/29 01:56:50;;;;;;;6.35;5.00;;;3.30;99.90;;;;;;5061844;28;20048;-62
2022/11/29 01:59:24;;;;;;;6.07;4.45;;;3.30;99.90;;;;;;5055697;28;20120;-62
2022/11/29 02:01:51;;;;;;;7.65;5.40;;;3.40;99.90;;;;;;5059230;28;20736;-62
2022/11/29 02:04:18;;;;;;;6.38;5.57;;;3.30;99.90;;;;;;5062541;27;20053;-62
2022/11/29 02:06:45;;;;;;;7.15;5.30;;;3.30;99.90;;;;;;5058352;28;20063;-63
2022/11/29 02:09:21;;;;;;;6.72;5.43;;;3.30;99.90;;;;;;5054946;28;20049;-65
2022/11/29 02:11:57;;;;;;;6.47;4.65;;;3.40;99.90;;;;;;5057572;28;20044;-62
2022/11/29 02:14:51;;;;;;;6.90;5.10;;;3.40;99.90;;;;;;5059926;28;20041;-62
2022/11/29 02:17:45;;;;;;;6.93;5.28;;;3.30;99.90;;;;;;5060549;27;20044;-63
2022/11/29 02:20:34;;;;;;;6.25;4.88;;;3.40;99.90;;;;;;5059043;28;20079;-63
2022/11/29 02:23:22;;;;;;;8.32;5.78;;;3.30;99.90;;;;;;5058402;28;20155;-64
2022/11/29 02:26:14;;;;;;;9.63;5.95;;;3.40;99.90;;;;;;5057580;28;20142;-64
2022/11/29 02:29:13;;;;;;;10.13;6.10;;;3.40;99.90;;;;;;5054991;28;20056;-64
2022/11/29 02:32:07;;;;;;;6.78;6.05;;;3.40;99.90;;;;;;5059863;28;20044;-62
2022/11/29 02:34:44;;;;;;;8.25;5.72;;;3.40;99.90;;;;;;5075759;28;20064;-62
2022/11/29 02:37:29;;;;;;;7.97;5.75;;;3.40;99.90;;;;;;5058642;28;20117;-64
2022/11/29 02:40:04;;;;;;;6.88;5.63;;;3.50;99.90;;;;;;5054811;28;20074;-62
2022/11/29 02:42:54;;;;;;;6.53;5.22;;;3.40;99.90;;;;;;5056703;28;20478;-62
2022/11/29 02:45:37;;;;;;;6.95;5.80;;;3.50;99.90;;;;;;5053735;28;20044;-62
2022/11/29 02:48:22;;;;;;;8.88;5.57;;;3.50;99.90;;;;;;5059318;28;20719;-62
2022/11/29 02:51:15;;;;;;;8.35;5.63;;;3.50;99.90;;;;;;5060815;28;20044;-64
2022/11/29 02:54:05;;;;;;;6.18;4.70;;;3.50;99.90;;;;;;5057947;28;20068;-62
2022/11/29 02:57:12;;;;;;;7.40;5.70;;;3.60;99.90;;;;;;5049540;27;20052;-62
2022/11/29 02:59:47;;;;;;;8.35;5.55;;;3.60;99.90;;;;;;5058652;28;20410;-62
2022/11/29 03:02:36;;;;;;;8.27;5.25;;;3.60;99.90;;;;;;5060583;28;20136;-61
2022/11/29 03:05:40;;;;;;;6.20;5.43;;;3.60;99.90;;;;;;5055904;28;20626;-62
2022/11/29 03:08:38;;;;;;;6.68;5.30;;;3.60;99.90;;;;;;5059867;28;20071;-63
2022/11/29 03:11:31;;;;;;;7.03;6.32;;;3.60;99.90;;;;;;5056001;28;20661;-62
2022/11/29 03:14:09;;;;;;;6.90;5.72;;;3.60;99.90;;;;;;5055852;28;20076;-63
2022/11/29 03:17:02;;;;;;;6.10;4.72;;;3.60;99.90;;;;;;5057944;28;20037;-62
2022/11/29 03:19:47;;;;;;;7.25;5.70;;;3.60;99.90;;;;;;5073800;28;20136;-63
2022/11/29 03:22:42;;;;;;;7.82;5.15;;;3.60;99.90;;;;;;5056466;28;20055;-63
2022/11/29 03:25:35;;;;;;;8.57;5.43;;;3.60;99.90;;;;;;5061745;28;20514;-62
2022/11/29 03:28:15;;;;;;;7.22;5.63;;;3.70;99.90;;;;;;5061925;28;20328;-62
2022/11/29 03:30:46;;;;;;;;;;;3.60;99.90;;;;;;5058986;28;20432;-62
2022/11/29 03:33:23;;;;;;;11.90;7.05;;;3.70;99.90;;;;;;5062256;28;19924;-62
2022/11/29 03:35:54;;;;;;;8.93;6.05;;;3.70;99.90;;;;;;5057335;28;20045;-62
2022/11/29 03:38:27;;;;;;;7.30;5.50;;;3.70;99.90;;;;;;5056062;28;20047;-64
2022/11/29 03:41:09;;;;;;;4.85;4.45;;;3.70;99.90;;;;;;5058156;28;20289;-64
2022/11/29 03:43:44;;;;;;;8.68;6.95;;;3.70;99.90;;;;;;5055296;28;20049;-63
2022/11/29 03:46:20;;;;;;;9.05;5.93;;;3.80;99.90;;;;;;5057750;28;20148;-61
2022/11/29 03:48:55;;;;;;;8.32;6.18;;;3.80;99.90;;;;;;5057913;28;20044;-62
2022/11/29 03:51:43;;;;;;;9.48;6.05;;;3.80;99.90;;;;;;5058530;28;20534;-62
2022/11/29 03:54:16;;;;;;;8.13;6.50;;;3.90;99.90;;;;;;5056277;28;20139;-62
2022/11/29 03:56:43;;;;;;;8.93;6.85;;;3.80;99.90;;;;;;5059641;28;20127;-62
2022/11/29 03:59:42;;;;;;;8.90;6.78;;;3.90;99.90;;;;;;5062892;28;20071;-63
2022/11/29 04:02:21;;;;;;;9.90;6.35;;;3.90;99.90;;;;;;5060548;28;20055;-63
2022/11/29 04:05:16;;;;;;;10.75;7.00;;;3.90;99.90;;;;;;5056006;28;20159;-63
2022/11/29 04:08:19;;;;;;;10.02;7.60;;;3.90;99.90;;;;;;5061770;28;20063;-62
2022/11/29 04:10:55;;;;;;;10.45;7.63;;;3.90;99.90;;;;;;5055836;28;20573;-63
2022/11/29 04:13:40;;;;;;;8.70;6.93;;;3.90;99.90;;;;;;5062684;28;20061;-63
2022/11/29 04:16:35;;;;;;;9.15;6.95;;;4.00;99.90;;;;;;5059300;28;20053;-62
2022/11/29 04:19:14;;;;;;;7.93;6.57;;;4.00;99.90;;;;;;5058714;28;20040;-65
2022/11/29 04:21:43;;;;;;;7.90;6.05;;;4.00;99.90;;;;;;5059507;28;20043;-63
2022/11/29 04:24:32;;;;;;;10.65;6.70;;;4.00;99.90;;;;;;5054812;28;20147;-65
2022/11/29 04:27:21;;;;;;;9.82;6.60;;;4.00;99.90;;;;;;5057531;28;20067;-62
2022/11/29 04:29:58;;;;;;;8.95;6.65;;;4.00;99.90;;;;;;5053455;28;20128;-63
2022/11/29 04:32:56;;;;;;;10.10;7.97;;;4.00;99.90;;;;;;5058234;28;20063;-62
2022/11/29 04:36:14;;;;;;;10.80;7.35;;;4.00;99.90;;;;;;5058217;28;20131;-64
2022/11/29 04:39:19;;;;;;;12.95;8.25;;;4.00;99.90;;;;;;5033752;28;20067;-62
2022/11/29 04:42:06;;;;;;;9.50;7.65;;;4.10;99.90;;;;;;5056277;28;20051;-62
2022/11/29 04:44:47;;;;;;;12.00;7.60;;;4.10;99.90;;;;;;5053303;28;20054;-63
2022/11/29 04:47:26;;;;;;;8.57;7.60;;;4.00;99.90;;;;;;5058627;28;20051;-62
2022/11/29 04:50:06;;;;;;;13.82;7.43;;;4.00;99.90;;;;;;5052702;28;20427;-64
2022/11/29 04:52:52;;;;;;;10.57;8.23;;;4.00;99.90;;;;;;5050811;28;20135;-65
2022/11/29 04:55:48;;;;;;;9.57;7.30;;;4.10;99.90;;;;;;5065722;27;20064;-63
2022/11/29 04:58:30;;;;;;;11.38;7.35;;;4.10;99.90;;;;;;5059167;28;20049;-62
2022/11/29 05:01:51;;;;;;;10.43;7.60;;;4.10;99.90;;;;;;5064210;28;20133;-62
2022/11/29 05:04:26;;;;;;;12.55;8.90;;;4.10;99.90;;;;;;5053007;28;20045;-66
2022/11/29 05:07:02;;;;;;;9.70;7.53;;;4.10;99.90;;;;;;5060886;28;20135;-63
2022/11/29 05:09:48;;;;;;;9.93;6.50;;;4.10;99.90;;;;;;5058497;28;20135;-62
2022/11/29 05:12:42;;;;;;;11.48;7.97;;;4.10;99.90;;;;;;5062734;28;20048;-63
2022/11/29 05:15:40;;;;;;;10.60;7.72;;;4.10;99.90;;;;;;5057842;28;20045;-65
2022/11/29 05:18:25;;;;;;;10.57;7.00;;;4.10;99.90;;;;;;5059025;28;20060;-63
2022/11/29 05:21:19;;;;;;;12.07;8.30;;;4.10;99.90;;;;;;5057322;28;20054;-62
2022/11/29 05:24:07;;;;;;;12.07;7.28;;;4.10;99.90;;;;;;5061046;28;20117;-63
2022/11/29 05:26:48;;;;;;;10.75;7.22;;;4.10;99.90;;;;;;5057433;28;20102;-63
2022/11/29 05:29:25;;;;;;;9.25;7.43;;;4.20;99.90;;;;;;5055680;28;20565;-62
2022/11/29 05:31:59;;;;;;;9.98;8.20;;;4.20;99.90;;;;;;5053873;28;20044;-64
2022/11/29 05:34:44;;;;;;;10.23;8.13;;;4.20;99.90;;;;;;5054931;28;20044;-63
2022/11/29 05:37:50;;;;;;;9.35;7.68;;;4.10;99.90;;;;;;5055010;28;20138;-63
2022/11/29 05:40:54;;;;;;;12.23;8.48;;;4.20;99.90;;;;;;5058228;28;20135;-65
2022/11/29 05:43:35;;;;;;;12.25;8.30;;;4.10;99.90;;;;;;5056323;28;20057;-63
2022/11/29 05:46:15;;;;;;;11.43;8.05;;;4.10;99.90;;;;;;5061139;28;20044;-63
2022/11/29 05:49:03;;;;;;;8.73;7.57;;;4.10;99.90;;;;;;5061302;28;20045;-62
2022/11/29 05:52:13;;;;;;;10.90;8.68;;;4.10;99.90;;;;;;5062297;28;20681;-63
2022/11/29 05:55:03;;;;;;;;;;;4.10;99.90;;;;;;5060441;28;20041;-63
2022/11/29 05:57:54;;;;;;;13.57;8.32;;;4.10;99.90;;;;;;5055730;28;19920;-63
2022/11/29 06:00:21;;;;;;;15.00;9.45;;;4.10;99.90;;;;;;5056718;28;20460;-63
2022/11/29 06:03:02;;;;;;;12.73;9.35;;;4.20;99.90;;;;;;5056895;28;20065;-64
2022/11/29 06:05:38;;;;;;;;;;;4.20;99.90;;;;;;5054416;28;20056;-63
2022/11/29 06:08:18;;;;;;;14.00;10.05;;;4.20;99.90;;;;;;5055772;28;19934;-62
2022/11/29 06:11:16;;;;;;;11.52;8.73;;;4.20;99.90;;;;;;5055159;28;20489;-62
2022/11/29 06:14:07;;;;;;;11.45;7.97;;;4.20;99.90;;;;;;5062329;28;20076;-64
2022/11/29 06:16:55;;;;;;;12.07;8.27;;;4.20;99.90;;;;;;5055019;28;20139;-64
2022/11/29 06:19:58;;;;;;;10.73;7.10;;;4.20;99.90;;;;;;5055853;28;20039;-62
2022/11/29 06:22:44;;;;;;;10.65;7.53;;;4.20;99.90;;;;;;5055001;28;20053;-63
2022/11/29 06:25:55;;;;;;;;;;;4.20;99.90;;;;;;5069293;28;20045;-65
2022/11/29 06:28:39;;;;;;;11.68;8.38;;;4.20;99.90;;;;;;5046157;28;19982;-65
2022/11/29 06:31:24;;;;;;;13.90;8.50;;;4.20;99.90;;;;;;5031685;28;20501;-63
2022/11/29 06:34:40;;;;;;;12.77;8.82;;;4.20;99.90;;;;;;5060544;28;20120;-63
2022/11/29 06:37:32;;;;;;;12.40;8.65;;;4.20;99.90;;;;;;5056609;28;20049;-63
2022/11/29 06:39:59;;;;;;;15.40;10.13;;;4.20;99.90;;;;;;5051909;28;20055;-62
2022/11/29 06:42:26;;;;;;;12.98;9.77;;;4.20;99.90;;;;;;5063109;28;20045;-62
2022/11/29 06:44:53;;;;;;;11.13;8.00;;;4.20;99.90;;;;;;5060866;28;20125;-63
2022/11/29 06:47:38;;;;;;;11.80;7.68;;;4.20;99.90;;;;;;5053894;28;20071;-62
2022/11/29 06:50:41;;;;;;;13.90;8.90;;;4.20;99.90;;;;;;5060706;28;20139;-64
2022/11/29 06:53:18;;;;;;;17.25;10.02;;;4.20;99.90;;;;;;5052395;28;20044;-62
2022/11/29 06:56:28;;;;;;;16.25;10.88;;;4.20;99.90;;;;;;5061624;28;20350;-61
2022/11/29 06:59:07;;;;;;;14.82;10.40;;;4.20;99.90;;;;;;5059886;28;20056;-63
2022/11/29 07:01:46;;;;;;;17.65;10.48;;;4.20;99.90;;;;;;5054406;28;20111;-62
2022/11/29 07:04:45;;;;;;;16.08;10.13;;;4.20;99.90;;;;;;5058864;28;20492;-63
2022/11/29 07:07:19;;;;;;;18.67;11.27;;;4.20;99.90;;;;;;5019091;28;20045;-63
2022/11/29 07:09:50;;;;;;;24.77;15.27;;;4.20;99.90;;;;;;5053902;28;20143;-62
2022/11/29 07:12:18;;;;;;;32.92;20.98;;;4.20;99.90;;;;;;5059413;28;20094;-63
2022/11/29 07:14:45;;;;;;;31.75;18.90;;;4.20;99.90;;;;;;5055373;28;20133;-63
2022/11/29 07:17:56;;;;;;;46.67;24.00;;;4.20;99.90;;;;;;5063006;28;20055;-62
2022/11/29 07:20:59;;;;;;;39.72;23.25;;;4.20;99.90;;;;;;5039998;28;20471;-61
2022/11/29 07:23:39;;;;;;;47.67;30.92;;;4.20;99.90;;;;;;5021177;28;20610;-61
2022/11/29 07:26:25;;;;;;;31.90;20.45;;;4.30;99.90;;;;;;5053972;28;20059;-64
2022/11/29 07:29:31;;;;;;;22.08;14.88;;;4.20;99.90;;;;;;5052146;28;20044;-62
2022/11/29 07:32:16;;;;;;;19.85;11.90;;;4.20;99.90;;;;;;5045428;28;20494;-62
2022/11/29 07:35:07;;;;;;;14.27;8.68;;;4.20;99.90;;;;;;5055708;28;20127;-62
2022/11/29 07:38:04;;;;;;;16.17;9.85;;;4.20;99.90;;;;;;5055557;28;20059;-63
2022/11/29 07:40:53;;;;;;;15.13;8.13;;;4.20;99.90;;;;;;5054336;28;20081;-62
2022/11/29 07:43:28;;;;;;;16.70;9.75;;;4.20;99.90;;;;;;5058934;28;20044;-62
2022/11/29 07:45:56;;;;;;;15.18;8.98;;;4.20;99.90;;;;;;5064013;28;20462;-62
2022/11/29 07:48:23;;;;;;;16.27;10.57;;;4.20;99.90;;;;;;5055486;28;20041;-61
2022/11/29 07:50:50;;;;;;;12.15;8.77;;;4.20;99.90;;;;;;5059576;28;20054;-61
2022/11/29 07:53:19;;;;;;;18.33;11.05;;;4.30;99.90;;;;;;5055542;28;20049;-61
2022/11/29 07:55:47;;;;;;;19.40;10.80;;;4.20;99.90;;;;;;5057550;28;20055;-61
2022/11/29 07:58:15;;;;;;;15.80;11.00;;;4.30;99.90;;;;;;5057324;28;20470;-67
2022/11/29 08:00:43;;;;;;;17.05;10.15;;;4.30;99.90;;;;;;5056234;28;20356;-62
2022/11/29 08:03:10;;;;;;;14.25;9.88;;;4.30;99.90;;;;;;5060887;28;20059;-65
2022/11/29 08:05:38;;;;;;;14.05;9.35;;;4.30;99.90;;;;;;5059017;28;20048;-62
2022/11/29 08:08:06;;;;;;;13.95;8.48;;;4.30;99.90;;;;;;5058719;28;20140;-61
2022/11/29 08:10:34;;;;;;;14.25;10.10;;;4.30;99.90;;;;;;5057712;28;20227;-64
2022/11/29 08:13:01;;;;;;;16.27;10.88;;;4.30;99.90;;;;;;5057983;28;20063;-61
2022/11/29 08:15:28;;;;;;;15.23;9.80;;;4.30;99.90;;;;;;5054142;28;20061;-62
2022/11/29 08:17:55;;;;;;;14.70;8.90;;;4.30;99.90;;;;;;5055440;28;20591;-62
2022/11/29 08:20:22;;;;;;;14.13;10.43;;;4.30;99.90;;;;;;5054477;28;20048;-62
2022/11/29 08:22:59;;;;;;;12.70;9.10;;;4.30;99.90;;;;;;5059191;28;20125;-61
2022/11/29 08:25:26;;;;;;;14.40;9.73;;;4.30;99.90;;;;;;5057447;28;20172;-62
2022/11/29 08:27:54;;;;;;;15.75;10.15;;;4.30;99.90;;;;;;5059032;28;20061;-64
2022/11/29 08:30:22;;;;;;;15.80;10.23;;;4.30;99.90;;;;;;5062400;28;20139;-62
2022/11/29 08:32:50;;;;;;;14.55;10.35;;;4.40;99.90;;;;;;5062530;28;20044;-62
2022/11/29 08:35:20;;;;;;;13.93;9.15;;;4.40;99.90;;;;;;5059726;28;20134;-62
2022/11/29 08:37:47;;;;;;;17.63;9.05;;;4.40;99.90;;;;;;5062202;28;20512;-62
2022/11/29 08:40:14;;;;;;;13.68;9.35;;;4.40;99.90;;;;;;5061680;28;20060;-62
2022/11/29 08:42:41;;;;;;;12.70;7.57;;;4.40;99.90;;;;;;5062887;28;20053;-62
2022/11/29 08:45:09;;;;;;;15.38;9.70;;;4.40;99.90;;;;;;5062174;28;20040;-62
2022/11/29 08:47:37;;;;;;;13.25;9.07;;;4.40;99.90;;;;;;5059993;28;20044;-64
2022/11/29 08:50:08;;;;;;;13.93;9.70;;;4.40;99.90;;;;;;5060886;28;20135;-62
2022/11/29 08:55:26;;;;;;;11.00;8.13;;;4.40;99.90;;;;;;5058238;28;20490;-62
2022/11/29 08:57:59;;;;;;;13.90;9.57;;;4.50;99.90;;;;;;5061033;28;20058;-64
2022/11/29 09:00:26;;;;;;;12.43;8.85;;;4.50;99.90;;;;;;5062257;28;20144;-62
2022/11/29 09:02:52;;;;;;;16.08;8.43;;;4.50;99.90;;;;;;5061813;28;20049;-61
2022/11/29 09:05:19;;;;;;;12.95;8.40;;;4.50;99.90;;;;;;5059126;28;20044;-61
2022/11/29 09:07:46;;;;;;;13.82;9.70;;;4.50;99.90;;;;;;5061005;28;20057;-62
2022/11/29 09:10:14;;;;;;;18.08;10.52;;;4.50;99.90;;;;;;5062064;28;20600;-62
2022/11/29 09:12:43;;;;;;;14.80;8.68;;;4.50;99.90;;;;;;5058872;28;25258;-63
2022/11/29 09:15:10;;;;;;;16.33;9.95;;;4.50;99.90;;;;;;5058988;28;20037;-61
2022/11/29 09:17:37;;;;;;;12.15;7.82;;;4.50;99.90;;;;;;5060236;28;20053;-62
2022/11/29 09:20:05;;;;;;;11.85;8.30;;;4.50;99.90;;;;;;5062474;28;20131;-61
2022/11/29 09:22:32;;;;;;;14.05;9.60;;;4.50;99.90;;;;;;5057927;28;20136;-64
2022/11/29 09:24:58;;;;;;;14.15;10.48;;;4.50;99.90;;;;;;5062862;28;20047;-61
2022/11/29 09:27:25;;;;;;;15.38;9.48;;;4.50;99.90;;;;;;5061573;28;20195;-62
2022/11/29 09:29:52;;;;;;;16.55;9.85;;;4.40;99.90;;;;;;5062233;28;20048;-62
2022/11/29 09:32:19;;;;;;;18.90;9.90;;;4.50;99.90;;;;;;5058299;28;20423;-62
2022/11/29 09:34:46;;;;;;;16.77;10.27;;;4.50;99.90;;;;;;5057390;28;20102;-62
2022/11/29 09:37:14;;;;;;;15.85;9.93;;;4.50;99.90;;;;;;5044215;28;20409;-64
2022/11/29 09:39:44;;;;;;;14.45;9.63;;;4.50;99.90;;;;;;5059491;28;20064;-61
2022/11/29 09:42:21;;;;;;;13.32;9.43;;;4.50;99.90;;;;;;5064054;28;20464;-61
2022/11/29 09:44:51;;;;;;;17.40;10.82;;;4.50;99.90;;;;;;5055422;28;20063;-62
2022/11/29 09:47:52;;;;;;;17.58;11.10;;;4.50;99.90;;;;;;5061336;28;20075;-62
2022/11/29 09:50:33;;;;;;;15.35;10.00;;;4.60;99.90;;;;;;5061212;28;20075;-62
2022/11/29 09:52:59;;;;;;;20.17;11.23;;;4.60;99.90;;;;;;5051521;28;20140;-62
2022/11/29 09:55:41;;;;;;;15.32;10.30;;;4.60;99.90;;;;;;5062261;28;20045;-61
2022/11/29 09:58:14;;;;;;;16.08;11.38;;;4.60;99.90;;;;;;5055988;28;20071;-62
2022/11/29 10:00:50;;;;;;;18.10;11.10;;;4.60;99.90;;;;;;5051606;28;20120;-61
2022/11/29 10:03:30;;;;;;;16.27;10.05;;;4.70;99.90;;;;;;5061379;28;20044;-61
2022/11/29 10:06:16;;;;;;;16.05;11.85;;;4.60;99.90;;;;;;5054988;28;20051;-62
2022/11/29 10:08:50;;;;;;;18.20;11.48;;;4.60;99.90;;;;;;5056530;28;20044;-61
2022/11/29 10:11:37;;;;;;;17.38;11.20;;;4.70;99.90;;;;;;5065480;28;20110;-62
2022/11/29 10:14:19;;;;;;;14.43;10.85;;;4.70;99.90;;;;;;5049894;28;20075;-61
2022/11/29 10:17:02;;;;;;;17.20;11.75;;;4.70;99.90;;;;;;5054284;28;20140;-63
2022/11/29 10:19:37;;;;;;;15.32;10.85;;;4.80;99.90;;;;;;5063137;28;20570;-62
2022/11/29 10:22:25;;;;;;;16.67;9.60;;;4.80;99.90;;;;;;5061745;28;20055;-62
2022/11/29 10:24:58;;;;;;;33.70;10.98;;;4.80;99.90;;;;;;5059282;28;20077;-61
2022/11/29 10:27:28;;;;;;;15.02;10.00;;;4.80;99.90;;;;;;5062578;28;20064;-63
2022/11/29 10:29:56;;;;;;;;;;;4.80;99.90;;;;;;5059484;28;20074;-62
2022/11/29 10:32:24;;;;;;;14.30;10.27;;;4.80;99.90;;;;;;5054894;28;20006;-63
2022/11/29 10:34:51;;;;;;;15.45;10.15;;;4.80;99.90;;;;;;5058382;28;20186;-61
2022/11/29 10:37:21;;;;;;;14.10;10.68;;;4.80;99.90;;;;;;5055068;28;20048;-61
2022/11/29 10:39:56;;;;;;;;;;;4.80;99.90;;;;;;5060351;28;20080;-62
2022/11/29 10:45:14;;;;;;;16.50;11.65;;;4.80;99.90;;;;;;5055836;28;20053;-64
2022/11/29 10:47:42;;;;;;;12.20;9.68;;;4.80;99.90;;;;;;5061819;28;20059;-61
2022/11/29 10:50:24;;;;;;;15.32;9.82;;;4.80;99.90;;;;;;5065667;28;20052;-62
2022/11/29 10:53:02;;;;;;;14.43;8.80;;;4.80;99.90;;;;;;5056930;28;20453;-63
2022/11/29 10:55:54;;;;;;;13.52;9.18;;;4.80;99.90;;;;;;5057800;28;20128;-62
2022/11/29 10:58:24;;;;;;;13.45;9.10;;;4.80;99.90;;;;;;5056159;28;20041;-64
2022/11/29 11:00:56;;;;;;;14.90;10.38;;;4.90;99.90;;;;;;5054002;28;20464;-64
2022/11/29 11:03:48;;;;;;;22.85;10.55;;;4.90;99.90;;;;;;5060788;28;20052;-61
2022/11/29 11:06:44;;;;;;;15.13;10.07;;;4.90;99.90;;;;;;5059709;28;20044;-63
2022/11/29 11:09:41;;;;;;;13.30;9.70;;;4.90;99.90;;;;;;5056630;28;21252;-62
2022/11/29 11:12:14;;;;;;;14.10;9.68;;;4.90;99.90;;;;;;5060197;28;20450;-61
2022/11/29 11:14:42;;;;;;;17.52;11.20;;;4.90;99.90;;;;;;5055083;28;20092;-62
2022/11/29 11:17:21;;;;;;;13.50;10.10;;;4.90;99.90;;;;;;5058842;28;20151;-64
2022/11/29 11:19:56;;;;;;;14.93;10.23;;;4.90;99.90;;;;;;5051567;28;20045;-63
2022/11/29 11:22:24;;;;;;;16.55;11.15;;;4.90;99.90;;;;;;5073791;28;20056;-65
2022/11/29 11:25:02;;;;;;;19.65;11.52;;;4.90;99.90;;;;;;5052336;28;20053;-61
2022/11/29 11:27:34;;;;;;;19.00;13.25;;;5.00;99.90;;;;;;5051034;28;20041;-63
2022/11/29 11:30:04;;;;;;;14.95;11.57;;;4.90;99.90;;;;;;5056109;28;20053;-62
2022/11/29 11:32:31;;;;;;;15.30;11.83;;;4.90;99.90;;;;;;5049625;28;20051;-63
2022/11/29 11:35:00;;;;;;;15.32;11.05;;;4.90;99.90;;;;;;5054304;28;20047;-62
2022/11/29 11:37:32;;;;;;;17.30;12.05;;;4.90;99.90;;;;;;5059928;28;20044;-62
2022/11/29 11:40:20;;;;;;;15.93;11.48;;;4.90;99.90;;;;;;5053264;28;20049;-61
2022/11/29 11:42:47;;;;;;;19.10;11.32;;;4.90;99.90;;;;;;5030104;28;20042;-65
2022/11/29 11:45:14;;;;;;;16.63;10.88;;;4.90;99.90;;;;;;5033229;28;20137;-61
2022/11/29 11:47:45;;;;;;;15.77;11.38;;;4.90;99.90;;;;;;5038568;28;20186;-61
2022/11/29 11:50:26;;;;;;;12.88;9.73;;;4.90;99.90;;;;;;5031212;28;20076;-63
2022/11/29 11:53:02;;;;;;;16.00;10.55;;;4.90;99.90;;;;;;5031516;28;20136;-61
2022/11/29 11:55:39;;;;;;;13.65;8.93;;;4.90;99.90;;;;;;5034404;28;20045;-62
2022/11/29 11:58:12;;;;;;;13.02;9.07;;;4.80;99.90;;;;;;5035252;28;20076;-62
2022/11/29 12:01:14;;;;;;;16.92;9.60;;;4.80;99.90;;;;;;5031033;28;20110;-62
2022/11/29 12:04:09;;;;;;;13.65;9.23;;;4.70;99.90;;;;;;5039481;28;20111;-62
2022/11/29 12:06:51;;;;;;;13.98;9.90;;;4.70;99.90;;;;;;5040130;28;20131;-62
2022/11/29 12:09:37;;;;;;;21.02;10.15;;;4.70;99.90;;;;;;5039665;28;20045;-62
2022/11/29 12:12:07;;;;;;;14.35;8.90;;;4.70;99.90;;;;;;5045772;28;20049;-61
2022/11/29 12:14:56;;;;;;;13.23;8.48;;;4.80;99.90;;;;;;5046924;28;20048;-63
2022/11/29 12:17:29;;;;;;;11.80;9.05;;;4.70;99.90;;;;;;5081276;28;20055;-61
2022/11/29 12:20:11;;;;;;;14.73;8.57;;;4.80;99.90;;;;;;5043338;28;20080;-62
2022/11/29 12:23:11;;;;;;;13.70;9.13;;;4.70;99.90;;;;;;5040649;28;20630;-63
2022/11/29 12:26:01;;;;;;;12.60;9.60;;;4.70;99.90;;;;;;5043281;28;20048;-63
2022/11/29 12:28:37;;;;;;;13.75;10.05;;;4.70;99.90;;;;;;5040368;28;20052;-62
2022/11/29 12:31:39;;;;;;;15.07;8.98;;;4.70;99.90;;;;;;5044759;28;20091;-64
2022/11/29 12:34:21;;;;;;;14.85;9.00;;;4.70;99.90;;;;;;5020070;28;20550;-62
2022/11/29 12:37:12;;;;;;;19.20;9.07;;;4.70;99.90;;;;;;5034360;28;20533;-62
2022/11/29 12:40:03;;;;;;;14.52;9.63;;;4.70;99.90;;;;;;5043136;28;20057;-64
2022/11/29 12:42:34;;;;;;;;;;;4.70;99.90;;;;;;5044975;28;20076;-62
2022/11/29 12:45:20;;;;;;;12.20;9.15;;;4.70;99.90;;;;;;5042283;28;19921;-63
2022/11/29 12:48:21;;;;;;;14.15;9.55;;;4.60;99.90;;;;;;5043600;28;20132;-62
2022/11/29 12:51:09;;;;;;;18.15;9.55;;;4.60;99.90;;;;;;5040278;28;20124;-65
2022/11/29 12:53:55;;;;;;;17.45;9.25;;;4.60;99.90;;;;;;5042202;28;20045;-61
2022/11/29 12:57:05;;;;;;;14.93;9.05;;;4.60;99.90;;;;;;5037491;28;20455;-63
2022/11/29 12:59:50;;;;;;;13.13;8.10;;;4.60;99.90;;;;;;5050073;28;20060;-64
2022/11/29 13:02:40;;;;;;;12.40;8.27;;;4.60;99.90;;;;;;5060611;28;20486;-62
2022/11/29 13:05:28;;;;;;;14.25;8.98;;;4.60;99.90;;;;;;5058696;28;20041;-63
2022/11/29 13:08:29;;;;;;;16.05;8.95;;;4.60;99.90;;;;;;5060683;28;20098;-63
2022/11/29 13:11:17;;;;;;;12.15;8.23;;;4.60;99.90;;;;;;5040627;28;20059;-65
2022/11/29 13:13:49;;;;;;;13.23;9.05;;;4.60;99.90;;;;;;5035734;28;20793;-64
2022/11/29 13:16:34;;;;;;;10.77;7.68;;;4.50;99.90;;;;;;5038124;28;20130;-63
2022/11/29 13:19:28;;;;;;;12.15;9.10;;;4.50;99.90;;;;;;5059680;28;20068;-63
2022/11/29 13:22:16;;;;;;;10.45;7.85;;;4.50;99.90;;;;;;5061749;28;20373;-62
2022/11/29 13:24:52;;;;;;;12.95;8.18;;;4.50;99.90;;;;;;5054552;28;20055;-63
2022/11/29 13:27:33;;;;;;;10.30;7.03;;;4.40;99.90;;;;;;5062868;28;20049;-62
2022/11/29 13:30:01;;;;;;;14.38;7.47;;;4.40;99.90;;;;;;5057599;28;20502;-63
2022/11/29 13:32:35;;;;;;;12.93;8.02;;;4.30;99.90;;;;;;5055667;28;20073;-63
2022/11/29 13:35:20;;;;;;;11.95;7.30;;;4.30;99.90;;;;;;5063634;28;20097;-62
2022/11/29 13:38:23;;;;;;;14.98;8.95;;;4.30;99.90;;;;;;5058909;28;20733;-62
2022/11/29 13:40:52;;;;;;;15.90;8.35;;;4.30;99.90;;;;;;5058153;28;20132;-63
2022/11/29 13:43:23;;;;;;;12.40;9.18;;;4.30;99.90;;;;;;5062650;28;20037;-63
2022/11/29 13:45:49;;;;;;;;;;;4.30;99.90;;;;;;5059167;28;20471;-64
2022/11/29 13:48:44;;;;;;;12.48;8.65;;;4.30;99.90;;;;;;5063215;28;19929;-62
2022/11/29 13:51:37;;;;;;;11.48;7.88;;;4.30;99.90;;;;;;5061608;28;20534;-64
2022/11/29 13:54:23;;;;;;;17.67;9.13;;;4.30;99.90;;;;;;5062577;28;20048;-62
2022/11/29 13:57:10;;;;;;;11.85;8.43;;;4.30;99.90;;;;;;5056860;28;20049;-63
2022/11/29 13:59:38;;;;;;;13.30;8.80;;;4.20;99.90;;;;;;5059405;27;20101;-66
2022/11/29 14:02:30;;;;;;;15.32;9.60;;;4.20;99.90;;;;;;5066839;28;20122;-63